Terminal Aerodrome Forecast
Issued by NWS

Home | Current Version | Previous Version | Text Only | Print | Product List | Glossary On
Versions: 1 2 3 4 5 6 7 8 9 10 11 12 13 14 15 16 17 18 19 20 21 22 23 24 25 26 27 28 29 30
901
FTUS44 KOUN 221720
TAFLAW
TAF
KLAW 221720Z 2218/2318 19014G18KT P6SM VCSH FEW020 BKN040 BKN090
     FM222300 20009KT P6SM BKN050 BKN100 BKN250
     FM230300 03009KT P6SM BKN100 BKN200
     FM230900 04009KT P6SM BKN050 OVC100=

USA.gov is the U.S. government's official web portal to all federal, state and local government web resources and services.